sensor_id;sensor_type;location;lat;lon;timestamp;P1;durP1;ratioP1;P2;durP2;ratioP2
50010;SDS011;35899;50.352;19.390;2023-02-07T00:01:31;251.90;;;74.90;;
50010;SDS011;35899;50.352;19.390;2023-02-07T00:04:00;254.90;;;74.60;;
50010;SDS011;35899;50.352;19.390;2023-02-07T00:06:30;256.30;;;76.00;;
50010;SDS011;35899;50.352;19.390;2023-02-07T00:09:01;267.20;;;84.10;;
50010;SDS011;35899;50.352;19.390;2023-02-07T00:11:31;251.20;;;75.00;;
50010;SDS011;35899;50.352;19.390;2023-02-07T00:13:59;252.20;;;76.30;;
50010;SDS011;35899;50.352;19.390;2023-02-07T00:16:27;250.80;;;75.00;;
50010;SDS011;35899;50.352;19.390;2023-02-07T00:18:55;237.20;;;71.70;;
50010;SDS011;35899;50.352;19.390;2023-02-07T00:21:27;213.90;;;67.40;;
50010;SDS011;35899;50.352;19.390;2023-02-07T00:23:56;204.30;;;64.70;;
50010;SDS011;35899;50.352;19.390;2023-02-07T00:26:25;211.70;;;63.10;;
50010;SDS011;35899;50.352;19.390;2023-02-07T00:28:54;199.80;;;62.30;;
50010;SDS011;35899;50.352;19.390;2023-02-07T00:31:27;213.20;;;62.80;;
50010;SDS011;35899;50.352;19.390;2023-02-07T00:33:58;220.00;;;62.50;;
50010;SDS011;35899;50.352;19.390;2023-02-07T00:36:30;197.60;;;57.00;;
50010;SDS011;35899;50.352;19.390;2023-02-07T00:39:03;201.80;;;61.30;;
50010;SDS011;35899;50.352;19.390;2023-02-07T00:41:33;194.60;;;58.80;;
50010;SDS011;35899;50.352;19.390;2023-02-07T00:44:02;189.40;;;60.60;;
50010;SDS011;35899;50.352;19.390;2023-02-07T00:46:30;202.70;;;58.10;;
50010;SDS011;35899;50.352;19.390;2023-02-07T00:48:59;203.30;;;59.80;;
50010;SDS011;35899;50.352;19.390;2023-02-07T00:51:27;196.20;;;58.10;;
50010;SDS011;35899;50.352;19.390;2023-02-07T00:53:56;197.00;;;56.70;;
50010;SDS011;35899;50.352;19.390;2023-02-07T00:56:25;187.50;;;55.00;;
50010;SDS011;35899;50.352;19.390;2023-02-07T01:01:26;187.60;;;52.60;;
50010;SDS011;35899;50.352;19.390;2023-02-07T01:03:56;197.50;;;56.50;;
50010;SDS011;35899;50.352;19.390;2023-02-07T01:06:24;478.90;;;130.30;;
50010;SDS011;35899;50.352;19.390;2023-02-07T01:08:59;211.90;;;63.60;;
50010;SDS011;35899;50.352;19.390;2023-02-07T01:11:28;168.30;;;51.40;;
50010;SDS011;35899;50.352;19.390;2023-02-07T01:13:58;177.70;;;54.80;;
50010;SDS011;35899;50.352;19.390;2023-02-07T01:16:31;156.30;;;42.90;;
50010;SDS011;35899;50.352;19.390;2023-02-07T01:19:03;171.70;;;50.90;;
50010;SDS011;35899;50.352;19.390;2023-02-07T01:21:33;179.90;;;51.40;;
50010;SDS011;35899;50.352;19.390;2023-02-07T01:24:03;178.20;;;53.80;;
50010;SDS011;35899;50.352;19.390;2023-02-07T01:26:31;193.50;;;55.60;;
50010;SDS011;35899;50.352;19.390;2023-02-07T01:28:59;165.20;;;49.70;;
50010;SDS011;35899;50.352;19.390;2023-02-07T01:31:27;179.80;;;52.80;;
50010;SDS011;35899;50.352;19.390;2023-02-07T01:33:56;193.20;;;54.50;;
50010;SDS011;35899;50.352;19.390;2023-02-07T01:36:26;180.10;;;50.70;;
50010;SDS011;35899;50.352;19.390;2023-02-07T01:38:55;173.00;;;52.30;;
50010;SDS011;35899;50.352;19.390;2023-02-07T01:41:25;168.20;;;47.90;;
50010;SDS011;35899;50.352;19.390;2023-02-07T01:43:59;156.90;;;48.00;;
50010;SDS011;35899;50.352;19.390;2023-02-07T01:46:30;168.20;;;50.20;;
50010;SDS011;35899;50.352;19.390;2023-02-07T01:49:01;164.40;;;43.60;;
50010;SDS011;35899;50.352;19.390;2023-02-07T01:51:36;177.10;;;47.40;;
50010;SDS011;35899;50.352;19.390;2023-02-07T01:54:09;185.60;;;50.10;;
50010;SDS011;35899;50.352;19.390;2023-02-07T01:56:41;161.90;;;47.90;;
50010;SDS011;35899;50.352;19.390;2023-02-07T01:59:12;185.70;;;52.00;;
50010;SDS011;35899;50.352;19.390;2023-02-07T02:01:42;156.60;;;46.60;;
50010;SDS011;35899;50.352;19.390;2023-02-07T02:04:11;154.30;;;41.10;;
50010;SDS011;35899;50.352;19.390;2023-02-07T02:06:40;172.90;;;50.40;;
50010;SDS011;35899;50.352;19.390;2023-02-07T02:09:10;170.70;;;48.70;;
50010;SDS011;35899;50.352;19.390;2023-02-07T02:17:27;177.90;;;52.10;;
50010;SDS011;35899;50.352;19.390;2023-02-07T02:36:09;202.40;;;60.00;;
50010;SDS011;35899;50.352;19.390;2023-02-07T02:44:39;217.70;;;61.60;;
50010;SDS011;35899;50.352;19.390;2023-02-07T02:47:12;192.60;;;58.90;;
50010;SDS011;35899;50.352;19.390;2023-02-07T02:49:40;169.10;;;49.40;;
50010;SDS011;35899;50.352;19.390;2023-02-07T02:52:11;166.30;;;47.10;;
50010;SDS011;35899;50.352;19.390;2023-02-07T02:54:39;185.00;;;52.40;;
50010;SDS011;35899;50.352;19.390;2023-02-07T02:57:36;183.60;;;50.50;;
50010;SDS011;35899;50.352;19.390;2023-02-07T03:17:54;217.20;;;57.50;;
50010;SDS011;35899;50.352;19.390;2023-02-07T03:20:28;197.10;;;55.50;;
50010;SDS011;35899;50.352;19.390;2023-02-07T03:23:01;184.50;;;50.80;;
50010;SDS011;35899;50.352;19.390;2023-02-07T03:25:31;200.10;;;56.50;;
50010;SDS011;35899;50.352;19.390;2023-02-07T03:28:00;202.40;;;57.70;;
50010;SDS011;35899;50.352;19.390;2023-02-07T03:30:32;206.20;;;57.90;;
50010;SDS011;35899;50.352;19.390;2023-02-07T03:33:04;200.90;;;56.70;;
50010;SDS011;35899;50.352;19.390;2023-02-07T03:35:39;213.10;;;58.20;;
50010;SDS011;35899;50.352;19.390;2023-02-07T03:38:08;211.20;;;59.40;;
50010;SDS011;35899;50.352;19.390;2023-02-07T03:40:38;199.00;;;59.80;;
50010;SDS011;35899;50.352;19.390;2023-02-07T03:45:38;196.00;;;58.90;;
50010;SDS011;35899;50.352;19.390;2023-02-07T03:48:07;213.90;;;60.50;;
50010;SDS011;35899;50.352;19.390;2023-02-07T03:50:35;208.50;;;59.40;;
50010;SDS011;35899;50.352;19.390;2023-02-07T03:53:04;215.60;;;60.90;;
50010;SDS011;35899;50.352;19.390;2023-02-07T03:55:32;210.80;;;60.10;;
50010;SDS011;35899;50.352;19.390;2023-02-07T03:58:00;204.80;;;58.50;;
50010;SDS011;35899;50.352;19.390;2023-02-07T04:00:28;205.40;;;57.30;;
50010;SDS011;35899;50.352;19.390;2023-02-07T04:02:56;199.50;;;56.90;;
50010;SDS011;35899;50.352;19.390;2023-02-07T04:05:24;181.50;;;54.00;;
50010;SDS011;35899;50.352;19.390;2023-02-07T04:07:52;198.90;;;55.20;;
50010;SDS011;35899;50.352;19.390;2023-02-07T04:10:20;199.80;;;54.90;;
50010;SDS011;35899;50.352;19.390;2023-02-07T04:12:48;196.70;;;54.70;;
50010;SDS011;35899;50.352;19.390;2023-02-07T04:15:16;190.50;;;56.70;;
50010;SDS011;35899;50.352;19.390;2023-02-07T04:17:44;178.60;;;51.80;;
50010;SDS011;35899;50.352;19.390;2023-02-07T04:20:12;175.80;;;51.50;;
50010;SDS011;35899;50.352;19.390;2023-02-07T04:22:40;182.60;;;49.90;;
50010;SDS011;35899;50.352;19.390;2023-02-07T04:25:08;170.80;;;48.30;;
50010;SDS011;35899;50.352;19.390;2023-02-07T04:27:36;176.20;;;48.40;;
50010;SDS011;35899;50.352;19.390;2023-02-07T04:30:04;175.10;;;48.80;;
50010;SDS011;35899;50.352;19.390;2023-02-07T04:32:32;176.30;;;47.50;;
50010;SDS011;35899;50.352;19.390;2023-02-07T04:35:01;176.70;;;48.20;;
50010;SDS011;35899;50.352;19.390;2023-02-07T04:37:30;177.20;;;48.90;;
50010;SDS011;35899;50.352;19.390;2023-02-07T04:39:58;185.20;;;50.70;;
50010;SDS011;35899;50.352;19.390;2023-02-07T04:42:26;172.10;;;50.50;;
50010;SDS011;35899;50.352;19.390;2023-02-07T04:44:54;185.60;;;54.90;;
50010;SDS011;35899;50.352;19.390;2023-02-07T04:47:22;213.70;;;58.20;;
50010;SDS011;35899;50.352;19.390;2023-02-07T04:49:50;173.30;;;45.60;;
50010;SDS011;35899;50.352;19.390;2023-02-07T04:52:18;143.90;;;38.30;;
50010;SDS011;35899;50.352;19.390;2023-02-07T04:54:46;160.70;;;42.80;;
50010;SDS011;35899;50.352;19.390;2023-02-07T04:57:14;162.50;;;44.70;;
50010;SDS011;35899;50.352;19.390;2023-02-07T04:59:43;162.40;;;43.00;;
50010;SDS011;35899;50.352;19.390;2023-02-07T05:02:11;165.50;;;46.80;;
50010;SDS011;35899;50.352;19.390;2023-02-07T05:04:39;147.30;;;39.60;;
50010;SDS011;35899;50.352;19.390;2023-02-07T05:07:07;120.50;;;33.10;;
50010;SDS011;35899;50.352;19.390;2023-02-07T05:09:35;311.90;;;80.30;;
50010;SDS011;35899;50.352;19.390;2023-02-07T05:12:03;185.50;;;55.90;;
50010;SDS011;35899;50.352;19.390;2023-02-07T05:14:31;134.40;;;34.30;;
50010;SDS011;35899;50.352;19.390;2023-02-07T05:16:59;165.40;;;46.40;;
50010;SDS011;35899;50.352;19.390;2023-02-07T05:19:27;175.10;;;47.40;;
50010;SDS011;35899;50.352;19.390;2023-02-07T05:21:55;166.10;;;47.60;;
50010;SDS011;35899;50.352;19.390;2023-02-07T05:24:23;169.70;;;44.10;;
50010;SDS011;35899;50.352;19.390;2023-02-07T05:26:50;148.90;;;37.80;;
50010;SDS011;35899;50.352;19.390;2023-02-07T05:29:18;205.70;;;56.00;;
50010;SDS011;35899;50.352;19.390;2023-02-07T05:31:46;193.00;;;59.30;;
50010;SDS011;35899;50.352;19.390;2023-02-07T05:34:15;201.00;;;61.10;;
50010;SDS011;35899;50.352;19.390;2023-02-07T05:36:43;198.50;;;56.80;;
50010;SDS011;35899;50.352;19.390;2023-02-07T05:39:11;176.90;;;51.70;;
50010;SDS011;35899;50.352;19.390;2023-02-07T05:41:38;175.80;;;50.20;;
50010;SDS011;35899;50.352;19.390;2023-02-07T05:44:06;239.50;;;71.00;;
50010;SDS011;35899;50.352;19.390;2023-02-07T05:46:34;299.50;;;88.60;;
50010;SDS011;35899;50.352;19.390;2023-02-07T05:49:02;258.90;;;85.10;;
50010;SDS011;35899;50.352;19.390;2023-02-07T05:51:30;202.80;;;61.60;;
50010;SDS011;35899;50.352;19.390;2023-02-07T05:53:58;203.30;;;60.60;;
50010;SDS011;35899;50.352;19.390;2023-02-07T05:56:26;207.80;;;61.00;;
50010;SDS011;35899;50.352;19.390;2023-02-07T05:58:54;196.70;;;58.20;;
50010;SDS011;35899;50.352;19.390;2023-02-07T06:01:22;482.20;;;136.00;;
50010;SDS011;35899;50.352;19.390;2023-02-07T06:03:50;314.90;;;82.60;;
50010;SDS011;35899;50.352;19.390;2023-02-07T06:06:18;199.80;;;57.80;;
50010;SDS011;35899;50.352;19.390;2023-02-07T06:08:46;145.20;;;39.80;;
50010;SDS011;35899;50.352;19.390;2023-02-07T06:11:14;222.60;;;63.50;;
50010;SDS011;35899;50.352;19.390;2023-02-07T06:13:42;161.50;;;42.10;;
50010;SDS011;35899;50.352;19.390;2023-02-07T06:16:10;201.20;;;60.20;;
50010;SDS011;35899;50.352;19.390;2023-02-07T06:18:38;205.20;;;60.90;;
50010;SDS011;35899;50.352;19.390;2023-02-07T06:21:06;194.10;;;55.90;;
50010;SDS011;35899;50.352;19.390;2023-02-07T06:23:34;187.40;;;55.20;;
50010;SDS011;35899;50.352;19.390;2023-02-07T06:26:02;168.40;;;49.50;;
50010;SDS011;35899;50.352;19.390;2023-02-07T06:28:30;192.60;;;59.40;;
50010;SDS011;35899;50.352;19.390;2023-02-07T06:30:58;203.10;;;58.80;;
50010;SDS011;35899;50.352;19.390;2023-02-07T06:33:26;206.10;;;65.50;;
50010;SDS011;35899;50.352;19.390;2023-02-07T06:35:54;203.40;;;64.20;;
50010;SDS011;35899;50.352;19.390;2023-02-07T06:38:23;176.60;;;53.50;;
50010;SDS011;35899;50.352;19.390;2023-02-07T06:40:51;178.10;;;57.20;;
50010;SDS011;35899;50.352;19.390;2023-02-07T06:43:19;190.70;;;62.00;;
50010;SDS011;35899;50.352;19.390;2023-02-07T06:45:47;183.50;;;55.60;;
50010;SDS011;35899;50.352;19.390;2023-02-07T06:48:15;222.50;;;72.80;;
50010;SDS011;35899;50.352;19.390;2023-02-07T06:50:43;242.20;;;75.20;;
50010;SDS011;35899;50.352;19.390;2023-02-07T06:53:11;225.10;;;72.90;;
50010;SDS011;35899;50.352;19.390;2023-02-07T06:55:39;212.70;;;66.30;;
50010;SDS011;35899;50.352;19.390;2023-02-07T06:58:08;186.40;;;60.80;;
50010;SDS011;35899;50.352;19.390;2023-02-07T07:00:36;190.80;;;60.90;;
50010;SDS011;35899;50.352;19.390;2023-02-07T07:03:04;188.50;;;61.10;;
50010;SDS011;35899;50.352;19.390;2023-02-07T07:05:32;177.00;;;54.40;;
50010;SDS011;35899;50.352;19.390;2023-02-07T07:08:00;175.20;;;53.40;;
50010;SDS011;35899;50.352;19.390;2023-02-07T07:10:28;220.90;;;70.60;;
50010;SDS011;35899;50.352;19.390;2023-02-07T07:12:56;199.30;;;59.60;;
50010;SDS011;35899;50.352;19.390;2023-02-07T07:15:24;201.60;;;60.40;;
50010;SDS011;35899;50.352;19.390;2023-02-07T07:17:52;209.30;;;66.20;;
50010;SDS011;35899;50.352;19.390;2023-02-07T07:20:20;187.50;;;58.90;;
50010;SDS011;35899;50.352;19.390;2023-02-07T07:22:49;211.30;;;65.10;;
50010;SDS011;35899;50.352;19.390;2023-02-07T07:25:16;220.80;;;69.00;;
50010;SDS011;35899;50.352;19.390;2023-02-07T07:27:45;215.20;;;69.50;;
50010;SDS011;35899;50.352;19.390;2023-02-07T07:30:13;199.70;;;64.90;;
50010;SDS011;35899;50.352;19.390;2023-02-07T07:32:41;209.20;;;64.00;;
50010;SDS011;35899;50.352;19.390;2023-02-07T07:35:09;222.10;;;71.20;;
50010;SDS011;35899;50.352;19.390;2023-02-07T07:37:37;223.70;;;70.80;;
50010;SDS011;35899;50.352;19.390;2023-02-07T07:40:05;216.30;;;69.80;;
50010;SDS011;35899;50.352;19.390;2023-02-07T07:42:34;238.80;;;77.00;;
50010;SDS011;35899;50.352;19.390;2023-02-07T07:45:14;217.40;;;72.20;;
50010;SDS011;35899;50.352;19.390;2023-02-07T07:47:42;241.00;;;78.80;;
50010;SDS011;35899;50.352;19.390;2023-02-07T07:50:12;231.70;;;77.90;;
50010;SDS011;35899;50.352;19.390;2023-02-07T07:52:40;359.80;;;112.40;;
50010;SDS011;35899;50.352;19.390;2023-02-07T07:55:08;416.10;;;135.80;;
50010;SDS011;35899;50.352;19.390;2023-02-07T07:57:36;347.10;;;108.30;;
50010;SDS011;35899;50.352;19.390;2023-02-07T08:00:04;262.10;;;86.60;;
50010;SDS011;35899;50.352;19.390;2023-02-07T08:02:40;277.10;;;93.90;;
50010;SDS011;35899;50.352;19.390;2023-02-07T08:05:09;270.20;;;95.70;;
50010;SDS011;35899;50.352;19.390;2023-02-07T08:07:40;272.20;;;94.50;;
50010;SDS011;35899;50.352;19.390;2023-02-07T08:10:08;278.90;;;93.30;;
50010;SDS011;35899;50.352;19.390;2023-02-07T08:12:36;258.00;;;87.00;;
50010;SDS011;35899;50.352;19.390;2023-02-07T08:15:05;251.00;;;89.90;;
50010;SDS011;35899;50.352;19.390;2023-02-07T08:17:33;244.50;;;81.20;;
50010;SDS011;35899;50.352;19.390;2023-02-07T08:20:02;282.50;;;97.90;;
50010;SDS011;35899;50.352;19.390;2023-02-07T08:22:31;303.90;;;106.40;;
50010;SDS011;35899;50.352;19.390;2023-02-07T08:24:59;293.20;;;95.00;;
50010;SDS011;35899;50.352;19.390;2023-02-07T08:27:27;324.10;;;112.60;;
50010;SDS011;35899;50.352;19.390;2023-02-07T08:29:55;305.70;;;104.10;;
50010;SDS011;35899;50.352;19.390;2023-02-07T08:32:23;281.90;;;97.80;;
50010;SDS011;35899;50.352;19.390;2023-02-07T08:34:51;283.20;;;99.70;;
50010;SDS011;35899;50.352;19.390;2023-02-07T08:37:19;285.10;;;101.70;;
50010;SDS011;35899;50.352;19.390;2023-02-07T08:39:48;270.10;;;99.90;;
50010;SDS011;35899;50.352;19.390;2023-02-07T08:42:16;269.60;;;94.50;;
50010;SDS011;35899;50.352;19.390;2023-02-07T08:44:45;283.60;;;96.10;;
50010;SDS011;35899;50.352;19.390;2023-02-07T08:47:14;258.30;;;96.70;;
50010;SDS011;35899;50.352;19.390;2023-02-07T08:49:45;270.40;;;99.20;;
50010;SDS011;35899;50.352;19.390;2023-02-07T08:52:13;288.60;;;107.20;;
50010;SDS011;35899;50.352;19.390;2023-02-07T08:54:41;280.10;;;104.00;;
50010;SDS011;35899;50.352;19.390;2023-02-07T08:57:09;281.30;;;107.70;;
50010;SDS011;35899;50.352;19.390;2023-02-07T08:59:37;307.50;;;115.20;;
50010;SDS011;35899;50.352;19.390;2023-02-07T09:02:05;289.80;;;107.50;;
50010;SDS011;35899;50.352;19.390;2023-02-07T09:04:33;286.10;;;100.40;;
50010;SDS011;35899;50.352;19.390;2023-02-07T09:07:01;266.40;;;90.20;;
50010;SDS011;35899;50.352;19.390;2023-02-07T09:09:30;258.90;;;96.40;;
50010;SDS011;35899;50.352;19.390;2023-02-07T09:11:59;309.50;;;117.50;;
50010;SDS011;35899;50.352;19.390;2023-02-07T09:14:27;282.80;;;108.70;;
50010;SDS011;35899;50.352;19.390;2023-02-07T09:16:55;302.60;;;113.50;;
50010;SDS011;35899;50.352;19.390;2023-02-07T09:19:23;304.50;;;116.30;;
50010;SDS011;35899;50.352;19.390;2023-02-07T09:21:51;308.90;;;116.80;;
50010;SDS011;35899;50.352;19.390;2023-02-07T09:24:19;295.00;;;114.90;;
50010;SDS011;35899;50.352;19.390;2023-02-07T09:26:47;307.60;;;117.30;;
50010;SDS011;35899;50.352;19.390;2023-02-07T09:29:16;318.40;;;124.00;;
50010;SDS011;35899;50.352;19.390;2023-02-07T09:31:44;321.20;;;124.90;;
50010;SDS011;35899;50.352;19.390;2023-02-07T09:34:13;308.30;;;120.90;;
50010;SDS011;35899;50.352;19.390;2023-02-07T09:36:41;343.70;;;133.20;;
50010;SDS011;35899;50.352;19.390;2023-02-07T09:39:10;328.20;;;134.20;;
50010;SDS011;35899;50.352;19.390;2023-02-07T09:44:16;339.40;;;133.90;;
50010;SDS011;35899;50.352;19.390;2023-02-07T09:46:52;318.80;;;129.00;;
50010;SDS011;35899;50.352;19.390;2023-02-07T09:52:13;335.60;;;132.70;;
50010;SDS011;35899;50.352;19.390;2023-02-07T09:54:50;337.80;;;128.20;;
50010;SDS011;35899;50.352;19.390;2023-02-07T09:57:31;314.40;;;126.00;;
50010;SDS011;35899;50.352;19.390;2023-02-07T10:00:05;348.40;;;136.60;;
50010;SDS011;35899;50.352;19.390;2023-02-07T10:05:51;361.10;;;142.20;;
50010;SDS011;35899;50.352;19.390;2023-02-07T10:08:30;371.60;;;149.40;;
50010;SDS011;35899;50.352;19.390;2023-02-07T10:11:18;386.60;;;167.30;;
50010;SDS011;35899;50.352;19.390;2023-02-07T10:19:37;390.70;;;164.20;;
50010;SDS011;35899;50.352;19.390;2023-02-07T10:30:46;361.80;;;153.90;;
50010;SDS011;35899;50.352;19.390;2023-02-07T10:33:22;359.80;;;150.30;;
50010;SDS011;35899;50.352;19.390;2023-02-07T10:35:53;359.50;;;152.90;;
50010;SDS011;35899;50.352;19.390;2023-02-07T10:38:32;355.90;;;154.90;;
50010;SDS011;35899;50.352;19.390;2023-02-07T10:43:39;346.60;;;153.30;;
50010;SDS011;35899;50.352;19.390;2023-02-07T10:46:10;346.20;;;151.90;;
50010;SDS011;35899;50.352;19.390;2023-02-07T10:48:41;357.50;;;158.30;;
50010;SDS011;35899;50.352;19.390;2023-02-07T10:53:47;343.20;;;151.40;;
50010;SDS011;35899;50.352;19.390;2023-02-07T10:56:22;315.00;;;139.50;;
50010;SDS011;35899;50.352;19.390;2023-02-07T10:58:54;310.20;;;134.30;;
50010;SDS011;35899;50.352;19.390;2023-02-07T11:01:27;276.70;;;120.90;;
50010;SDS011;35899;50.352;19.390;2023-02-07T11:03:59;275.40;;;120.60;;
50010;SDS011;35899;50.352;19.390;2023-02-07T11:06:33;240.90;;;109.00;;
50010;SDS011;35899;50.352;19.390;2023-02-07T11:11:50;216.20;;;94.40;;
50010;SDS011;35899;50.352;19.390;2023-02-07T11:14:21;206.90;;;90.30;;
50010;SDS011;35899;50.352;19.390;2023-02-07T11:16:52;209.80;;;93.20;;
50010;SDS011;35899;50.352;19.390;2023-02-07T11:19:25;225.80;;;100.10;;
50010;SDS011;35899;50.352;19.390;2023-02-07T11:22:04;213.30;;;94.80;;
50010;SDS011;35899;50.352;19.390;2023-02-07T11:24:36;243.50;;;103.70;;
50010;SDS011;35899;50.352;19.390;2023-02-07T11:27:12;251.30;;;110.80;;
50010;SDS011;35899;50.352;19.390;2023-02-07T11:32:17;241.30;;;105.90;;
50010;SDS011;35899;50.352;19.390;2023-02-07T11:34:53;256.00;;;110.80;;
50010;SDS011;35899;50.352;19.390;2023-02-07T11:37:28;307.80;;;138.30;;
50010;SDS011;35899;50.352;19.390;2023-02-07T11:40:19;328.80;;;138.30;;
50010;SDS011;35899;50.352;19.390;2023-02-07T11:43:09;317.40;;;138.80;;
50010;SDS011;35899;50.352;19.390;2023-02-07T11:45:41;284.90;;;121.60;;
50010;SDS011;35899;50.352;19.390;2023-02-07T11:48:15;288.70;;;126.10;;
50010;SDS011;35899;50.352;19.390;2023-02-07T11:51:03;272.60;;;114.70;;
50010;SDS011;35899;50.352;19.390;2023-02-07T11:53:44;254.30;;;109.30;;
50010;SDS011;35899;50.352;19.390;2023-02-07T11:56:20;227.00;;;95.60;;
50010;SDS011;35899;50.352;19.390;2023-02-07T11:58:49;202.20;;;80.90;;
50010;SDS011;35899;50.352;19.390;2023-02-07T12:01:24;194.90;;;80.50;;
50010;SDS011;35899;50.352;19.390;2023-02-07T12:03:56;169.30;;;70.00;;
50010;SDS011;35899;50.352;19.390;2023-02-07T12:06:30;183.20;;;72.80;;
50010;SDS011;35899;50.352;19.390;2023-02-07T12:09:19;197.20;;;77.00;;
50010;SDS011;35899;50.352;19.390;2023-02-07T12:11:54;201.20;;;81.10;;
50010;SDS011;35899;50.352;19.390;2023-02-07T12:14:38;199.00;;;80.10;;
50010;SDS011;35899;50.352;19.390;2023-02-07T12:17:16;199.40;;;80.30;;
50010;SDS011;35899;50.352;19.390;2023-02-07T12:19:57;219.00;;;88.40;;
50010;SDS011;35899;50.352;19.390;2023-02-07T12:22:44;199.10;;;77.20;;
50010;SDS011;35899;50.352;19.390;2023-02-07T12:25:43;210.10;;;85.80;;
50010;SDS011;35899;50.352;19.390;2023-02-07T12:28:38;222.10;;;89.80;;
50010;SDS011;35899;50.352;19.390;2023-02-07T12:31:19;199.10;;;76.40;;
50010;SDS011;35899;50.352;19.390;2023-02-07T12:34:11;198.20;;;81.40;;
50010;SDS011;35899;50.352;19.390;2023-02-07T12:36:46;196.50;;;83.00;;
50010;SDS011;35899;50.352;19.390;2023-02-07T12:39:33;212.10;;;84.80;;
50010;SDS011;35899;50.352;19.390;2023-02-07T12:44:56;177.70;;;76.10;;
50010;SDS011;35899;50.352;19.390;2023-02-07T12:58:50;394.60;;;165.30;;
50010;SDS011;35899;50.352;19.390;2023-02-07T13:09:39;218.90;;;97.30;;
50010;SDS011;35899;50.352;19.390;2023-02-07T13:12:14;160.40;;;70.20;;
50010;SDS011;35899;50.352;19.390;2023-02-07T13:15:00;210.80;;;98.50;;
50010;SDS011;35899;50.352;19.390;2023-02-07T13:23:25;125.90;;;58.70;;
50010;SDS011;35899;50.352;19.390;2023-02-07T13:26:07;94.70;;;44.70;;
50010;SDS011;35899;50.352;19.390;2023-02-07T13:28:44;307.80;;;166.50;;
50010;SDS011;35899;50.352;19.390;2023-02-07T13:32:05;115.80;;;57.40;;
50010;SDS011;35899;50.352;19.390;2023-02-07T13:34:26;207.10;;;111.60;;
50010;SDS011;35899;50.352;19.390;2023-02-07T13:36:58;197.10;;;110.80;;
50010;SDS011;35899;50.352;19.390;2023-02-07T13:53:58;83.60;;;42.80;;
50010;SDS011;35899;50.352;19.390;2023-02-07T13:56:39;79.60;;;44.40;;
50010;SDS011;35899;50.352;19.390;2023-02-07T13:59:35;68.00;;;35.80;;
50010;SDS011;35899;50.352;19.390;2023-02-07T14:02:13;71.50;;;34.00;;
50010;SDS011;35899;50.352;19.390;2023-02-07T14:04:47;80.80;;;38.80;;
50010;SDS011;35899;50.352;19.390;2023-02-07T14:07:20;94.40;;;47.70;;
50010;SDS011;35899;50.352;19.390;2023-02-07T14:09:53;81.30;;;41.10;;
50010;SDS011;35899;50.352;19.390;2023-02-07T14:12:22;82.00;;;36.70;;
50010;SDS011;35899;50.352;19.390;2023-02-07T14:18:01;71.60;;;33.50;;
50010;SDS011;35899;50.352;19.390;2023-02-07T14:30:34;80.60;;;35.50;;
50010;SDS011;35899;50.352;19.390;2023-02-07T14:33:33;95.20;;;41.10;;
50010;SDS011;35899;50.352;19.390;2023-02-07T14:38:35;68.70;;;28.40;;
50010;SDS011;35899;50.352;19.390;2023-02-07T14:41:09;96.60;;;38.30;;
50010;SDS011;35899;50.352;19.390;2023-02-07T14:43:43;102.10;;;42.40;;
50010;SDS011;35899;50.352;19.390;2023-02-07T14:46:31;67.70;;;29.90;;
50010;SDS011;35899;50.352;19.390;2023-02-07T14:51:48;87.00;;;35.80;;
50010;SDS011;35899;50.352;19.390;2023-02-07T15:00:11;75.20;;;33.20;;
50010;SDS011;35899;50.352;19.390;2023-02-07T15:05:19;79.20;;;30.20;;
50010;SDS011;35899;50.352;19.390;2023-02-07T15:10:33;70.50;;;27.70;;
50010;SDS011;35899;50.352;19.390;2023-02-07T15:13:15;90.30;;;38.00;;
50010;SDS011;35899;50.352;19.390;2023-02-07T15:15:49;91.30;;;36.40;;
50010;SDS011;35899;50.352;19.390;2023-02-07T15:18:23;100.30;;;38.50;;
50010;SDS011;35899;50.352;19.390;2023-02-07T15:20:54;96.30;;;37.50;;
50010;SDS011;35899;50.352;19.390;2023-02-07T15:23:26;107.60;;;42.00;;
50010;SDS011;35899;50.352;19.390;2023-02-07T15:26:01;98.40;;;39.50;;
50010;SDS011;35899;50.352;19.390;2023-02-07T15:28:40;107.60;;;43.10;;
50010;SDS011;35899;50.352;19.390;2023-02-07T15:31:11;118.40;;;47.10;;
50010;SDS011;35899;50.352;19.390;2023-02-07T15:39:18;99.70;;;40.10;;
50010;SDS011;35899;50.352;19.390;2023-02-07T15:41:49;110.30;;;42.80;;
50010;SDS011;35899;50.352;19.390;2023-02-07T15:44:28;112.80;;;44.90;;
50010;SDS011;35899;50.352;19.390;2023-02-07T15:47:00;99.80;;;39.00;;
50010;SDS011;35899;50.352;19.390;2023-02-07T15:49:34;113.70;;;43.80;;
50010;SDS011;35899;50.352;19.390;2023-02-07T15:54:37;101.40;;;40.60;;
50010;SDS011;35899;50.352;19.390;2023-02-07T15:57:10;122.60;;;47.30;;
50010;SDS011;35899;50.352;19.390;2023-02-07T15:59:47;105.00;;;40.00;;
50010;SDS011;35899;50.352;19.390;2023-02-07T16:02:22;114.60;;;46.20;;
50010;SDS011;35899;50.352;19.390;2023-02-07T16:04:56;118.40;;;47.10;;
50010;SDS011;35899;50.352;19.390;2023-02-07T16:07:24;120.80;;;46.80;;
50010;SDS011;35899;50.352;19.390;2023-02-07T16:09:52;136.50;;;51.60;;
50010;SDS011;35899;50.352;19.390;2023-02-07T16:12:41;114.90;;;43.90;;
50010;SDS011;35899;50.352;19.390;2023-02-07T16:18:03;142.90;;;54.20;;
50010;SDS011;35899;50.352;19.390;2023-02-07T16:20:33;129.30;;;50.00;;
50010;SDS011;35899;50.352;19.390;2023-02-07T16:23:03;119.60;;;45.40;;
50010;SDS011;35899;50.352;19.390;2023-02-07T16:25:34;154.00;;;61.50;;
50010;SDS011;35899;50.352;19.390;2023-02-07T16:28:06;130.40;;;49.30;;
50010;SDS011;35899;50.352;19.390;2023-02-07T16:30:38;107.90;;;44.80;;
50010;SDS011;35899;50.352;19.390;2023-02-07T16:33:07;135.90;;;54.20;;
50010;SDS011;35899;50.352;19.390;2023-02-07T16:35:38;100.90;;;38.50;;
50010;SDS011;35899;50.352;19.390;2023-02-07T16:38:06;140.90;;;59.50;;
50010;SDS011;35899;50.352;19.390;2023-02-07T16:40:34;120.30;;;46.40;;
50010;SDS011;35899;50.352;19.390;2023-02-07T16:43:02;145.60;;;60.70;;
50010;SDS011;35899;50.352;19.390;2023-02-07T16:45:32;150.60;;;59.20;;
50010;SDS011;35899;50.352;19.390;2023-02-07T16:50:51;118.30;;;48.60;;
50010;SDS011;35899;50.352;19.390;2023-02-07T16:53:20;146.00;;;58.40;;
50010;SDS011;35899;50.352;19.390;2023-02-07T16:55:48;155.50;;;60.90;;
50010;SDS011;35899;50.352;19.390;2023-02-07T16:58:20;124.70;;;48.60;;
50010;SDS011;35899;50.352;19.390;2023-02-07T17:00:51;135.20;;;51.90;;
50010;SDS011;35899;50.352;19.390;2023-02-07T17:03:21;137.70;;;54.00;;
50010;SDS011;35899;50.352;19.390;2023-02-07T17:05:54;542.10;;;309.70;;
50010;SDS011;35899;50.352;19.390;2023-02-07T17:08:22;171.40;;;73.70;;
50010;SDS011;35899;50.352;19.390;2023-02-07T17:10:58;215.20;;;91.70;;